Time;durP1;ratioP1;P1;durP2;ratioP2;P2;SDS_P1;SDS_P2;PMS_P1;PMS_P2;Temp;Humidity;BMP_temperature;BMP_pressure;BME280_temperature;BME280_humidity;BME280_pressure;Samples;Min_cycle;Max_cycle;Signal;HPM_P1;HPM_P2
2024/03/11 00:02:27;;;;;;;17.43;13.57;;;;;;;6.61;80.82;96664.13;5125276;27;20282;-85
2024/03/11 00:04:54;;;;;;;16.30;12.63;;;;;;;6.78;80.55;96669.25;5121291;28;20681;-85
2024/03/11 00:07:21;;;;;;;17.07;12.80;;;;;;;6.33;80.26;96626.47;5131391;28;20203;-85
2024/03/11 00:09:48;;;;;;;18.83;13.70;;;;;;;6.59;80.75;96687.41;5132863;28;20202;-84
2024/03/11 00:12:22;;;;;;;17.40;12.63;;;;;;;6.64;80.04;96646.97;5132819;27;20222;-81
2024/03/11 00:14:51;;;;;;;14.13;11.33;;;;;;;6.82;79.60;96665.03;5130862;27;20303;-83
2024/03/11 00:17:19;;;;;;;16.00;13.43;;;;;;;6.66;79.72;96645.66;5132161;28;20191;-83
2024/03/11 00:19:46;;;;;;;17.47;12.90;;;;;;;6.23;80.83;96609.75;5131146;28;20616;-82
2024/03/11 00:22:13;;;;;;;17.57;14.10;;;;;;;6.48;81.13;96633.69;5132438;28;20563;-82
2024/03/11 00:24:40;;;;;;;16.17;13.40;;;;;;;6.84;80.20;96660.25;5131637;27;20198;-82
2024/03/11 00:27:09;;;;;;;17.00;13.73;;;;;;;6.93;80.02;96658.69;5119417;27;20223;-83
2024/03/11 00:29:37;;;;;;;16.33;13.30;;;;;;;6.95;80.30;96653.94;5116117;28;20649;-82
2024/03/11 00:32:05;;;;;;;18.37;13.00;;;;;;;7.04;80.21;96662.94;5114544;27;20274;-83
2024/03/11 00:34:33;;;;;;;16.33;13.67;;;;;;;7.10;80.15;96653.97;5114810;28;20244;-83
2024/03/11 00:37:00;;;;;;;18.33;13.13;;;;;;;7.10;80.45;96648.69;5115803;28;20207;-83
2024/03/11 00:39:27;;;;;;;18.43;13.83;;;;;;;7.13;80.78;96657.16;5128972;27;20237;-82
2024/03/11 00:41:54;;;;;;;19.70;13.50;;;;;;;6.69;81.84;96634.53;5136774;27;20621;-83
2024/03/11 00:44:22;;;;;;;18.37;12.63;;;;;;;6.69;81.91;96649.63;5135688;27;20541;-83
2024/03/11 00:46:51;;;;;;;16.57;12.07;;;;;;;6.86;81.69;96642.28;5135021;27;20750;-83
2024/03/11 00:49:19;;;;;;;13.67;12.13;;;;;;;6.83;81.26;96643.59;5117260;27;20589;-82
2024/03/11 00:51:46;;;;;;;17.70;12.57;;;;;;;6.71;81.70;96631.66;5127890;27;20201;-82
2024/03/11 00:54:13;;;;;;;18.20;13.20;;;;;;;6.68;81.89;96642.75;5135215;27;20205;-83
2024/03/11 00:56:40;;;;;;;16.60;13.40;;;;;;;6.76;81.14;96645.66;5136178;27;20194;-83
2024/03/11 00:59:07;;;;;;;16.27;14.30;;;;;;;6.38;81.29;96607.97;5134369;27;20218;-82
2024/03/11 01:01:34;;;;;;;19.87;15.73;;;;;;;6.66;81.11;96642.19;5135414;27;20195;-83
2024/03/11 01:04:03;;;;;;;24.57;16.37;;;;;;;6.66;80.92;96648.31;5134514;27;20191;-83
2024/03/11 01:06:30;;;;;;;22.33;16.07;;;;;;;6.49;81.59;96650.34;5135280;27;20250;-82
2024/03/11 01:08:56;;;;;;;20.03;14.87;;;;;;;6.34;82.36;96648.41;5134338;27;20198;-83
2024/03/11 01:11:24;;;;;;;25.57;14.50;;;;;;;6.33;81.52;96618.53;5136316;27;20198;-83
2024/03/11 01:13:51;;;;;;;19.60;15.30;;;;;;;6.69;81.75;96631.09;5103441;27;20196;-83
2024/03/11 01:16:18;;;;;;;17.97;13.80;;;;;;;6.71;81.75;96627.16;5115286;27;20226;-83
2024/03/11 01:18:45;;;;;;;16.37;12.87;;;;;;;6.79;81.92;96631.94;5134441;27;20211;-83
2024/03/11 01:21:16;;;;;;;18.23;13.30;;;;;;;6.63;82.31;96611.78;5134655;27;20226;-83
2024/03/11 01:23:44;;;;;;;17.37;13.43;;;;;;;6.88;82.48;96640.16;5132896;27;20244;-83
2024/03/11 01:26:11;;;;;;;18.17;13.80;;;;;;;6.93;82.69;96611.06;5135528;27;20215;-83
2024/03/11 01:28:38;;;;;;;16.97;12.77;;;;;;;7.03;82.69;96616.38;5134001;27;20198;-83
2024/03/11 01:31:05;;;;;;;16.43;12.77;;;;;;;6.90;83.31;96606.31;5135180;27;20193;-82
2024/03/11 01:33:32;;;;;;;16.20;13.70;;;;;;;6.91;82.61;96612.38;5134786;27;20226;-82
2024/03/11 01:35:59;;;;;;;17.10;12.57;;;;;;;6.69;82.90;96594.84;5134942;27;20199;-82
2024/03/11 01:38:27;;;;;;;17.53;13.97;;;;;;;6.92;82.69;96622.69;5132701;27;20247;-83
2024/03/11 01:40:54;;;;;;;17.00;12.73;;;;;;;7.03;82.08;96605.00;5134706;27;20258;-82
2024/03/11 01:43:21;;;;;;;16.40;11.57;;;;;;;6.93;82.31;96600.50;5130216;27;20221;-83
2024/03/11 01:45:48;;;;;;;16.63;13.70;;;;;;;6.76;82.26;96603.34;5120374;27;20199;-82
2024/03/11 01:48:15;;;;;;;17.43;11.93;;;;;;;6.59;83.36;96600.94;5133858;27;20198;-83
2024/03/11 01:50:43;;;;;;;15.80;11.87;;;;;;;6.83;82.39;96589.88;5134033;27;20198;-82
2024/03/11 01:53:10;;;;;;;16.33;12.37;;;;;;;6.86;82.20;96584.88;5134820;27;20640;-82
2024/03/11 01:55:38;;;;;;;15.13;12.53;;;;;;;7.04;82.63;96580.91;5134317;27;20661;-82
2024/03/11 01:58:09;;;;;;;16.70;11.93;;;;;;;7.07;82.73;96572.44;5134249;27;20219;-83
2024/03/11 02:00:37;;;;;;;13.40;11.80;;;;;;;7.05;83.09;96584.38;5132879;27;20199;-83
2024/03/11 02:03:06;;;;;;;16.90;12.70;;;;;;;7.14;82.75;96563.47;5134983;27;20201;-83
2024/03/11 02:05:40;;;;;;;14.07;11.53;;;;;;;7.16;82.46;96572.72;5134568;27;20198;-83
2024/03/11 02:08:07;;;;;;;15.40;11.77;;;;;;;7.16;82.96;96571.91;5134228;27;20229;-82
2024/03/11 02:10:34;;;;;;;16.07;11.63;;;;;;;6.97;83.53;96571.63;5132771;27;20248;-83
2024/03/11 02:13:03;;;;;;;14.77;11.33;;;;;;;6.95;83.73;96544.66;5133629;27;20271;-83
2024/03/11 02:15:30;;;;;;;12.90;10.67;;;;;;;6.96;82.96;96549.66;5134322;27;20191;-82
2024/03/11 02:17:57;;;;;;;18.30;14.60;;;;;;;6.96;82.98;96589.38;5134856;27;20199;-82
2024/03/11 02:20:26;;;;;;;17.93;13.43;;;;;;;7.10;83.08;96571.91;5132584;27;20206;-83
2024/03/11 02:22:54;;;;;;;18.63;14.13;;;;;;;6.77;82.72;96538.00;5133970;27;20560;-83
2024/03/11 02:25:26;;;;;;;19.23;14.53;;;;;;;7.00;82.83;96577.19;5133768;27;20199;-82
2024/03/11 02:27:54;;;;;;;19.50;14.80;;;;;;;6.80;82.64;96533.00;5133797;27;20250;-83
2024/03/11 02:30:21;;;;;;;17.40;14.23;;;;;;;7.00;82.03;96552.59;5132582;27;20618;-83
2024/03/11 02:32:49;;;;;;;19.10;14.77;;;;;;;6.93;81.66;96578.50;5133956;27;20195;-82
2024/03/11 02:35:16;;;;;;;18.37;13.97;;;;;;;6.81;81.99;96581.41;5132817;27;20696;-83
2024/03/11 02:37:44;;;;;;;26.53;15.00;;;;;;;6.76;82.03;96573.47;5134093;27;20195;-83
2024/03/11 02:40:12;;;;;;;19.50;15.57;;;;;;;6.70;82.71;96595.66;5132038;27;20255;-83
2024/03/11 02:42:40;;;;;;;15.10;12.90;;;;;;;6.83;83.03;96597.81;5133295;27;20195;-83
2024/03/11 02:45:09;;;;;;;19.53;14.43;;;;;;;6.92;82.31;96609.47;5133419;27;20218;-83
2024/03/11 02:47:36;;;;;;;17.70;13.27;;;;;;;6.95;82.42;96622.19;5133503;27;20723;-83
2024/03/11 02:50:05;;;;;;;15.73;12.87;;;;;;;6.79;82.91;96602.03;5132232;27;20285;-83
2024/03/11 02:52:32;;;;;;;17.67;13.90;;;;;;;7.00;82.51;96616.88;5132538;27;20198;-83
2024/03/11 02:54:59;;;;;;;19.27;12.67;;;;;;;7.14;82.43;96621.69;5117519;27;20718;-82
2024/03/11 02:57:29;;;;;;;17.70;13.60;;;;;;;7.19;82.33;96613.75;5112324;27;20199;-83
2024/03/11 02:59:57;;;;;;;15.57;12.23;;;;;;;7.13;82.10;96622.75;5117730;27;20227;-82
2024/03/11 03:02:24;;;;;;;19.10;12.90;;;;;;;7.24;82.28;96622.50;5112010;28;20746;-83
2024/03/11 03:04:51;;;;;;;17.83;13.67;;;;;;;7.16;82.03;96601.81;5123237;27;20275;-83
2024/03/11 03:07:19;;;;;;;18.47;13.40;;;;;;;7.34;82.02;96617.19;5119295;27;20222;-82
2024/03/11 03:09:46;;;;;;;16.33;13.17;;;;;;;7.22;82.55;96603.44;5112227;28;20297;-83
2024/03/11 03:12:14;;;;;;;15.90;12.70;;;;;;;7.27;82.22;96611.38;5112696;28;20196;-83
2024/03/11 03:14:41;;;;;;;18.40;12.60;;;;;;;7.33;82.19;96591.78;5112788;28;20287;-83
2024/03/11 03:17:09;;;;;;;15.97;12.63;;;;;;;7.63;81.76;96606.09;5111466;28;20595;-82
2024/03/11 03:19:36;;;;;;;22.93;16.43;;;;;;;7.36;82.27;96587.81;5111547;28;20248;-83
2024/03/11 03:22:03;;;;;;;18.00;13.87;;;;;;;7.42;82.88;96599.19;5112533;28;20210;-83
2024/03/11 03:24:30;;;;;;;24.67;17.97;;;;;;;7.30;82.92;96610.06;5122901;27;20198;-83
2024/03/11 03:26:57;;;;;;;21.63;13.77;;;;;;;7.22;83.31;96614.03;5133164;27;20278;-83
2024/03/11 03:29:24;;;;;;;17.67;15.10;;;;;;;7.17;82.91;96605.28;5132132;27;20609;-82
2024/03/11 03:31:51;;;;;;;16.07;13.17;;;;;;;7.01;83.13;96573.50;5132304;27;20533;-82
2024/03/11 03:34:19;;;;;;;15.97;13.10;;;;;;;7.17;83.17;96576.97;5133448;27;20633;-82
2024/03/11 03:36:46;;;;;;;19.73;13.33;;;;;;;7.29;83.35;96593.38;5133268;27;20336;-82
2024/03/11 03:39:13;;;;;;;18.47;14.00;;;;;;;7.40;83.40;96591.53;5134064;28;20305;-82
2024/03/11 03:41:40;;;;;;;21.07;15.40;;;;;;;7.39;82.55;96607.66;5132719;27;20725;-82
2024/03/11 03:44:07;;;;;;;17.27;13.30;;;;;;;7.37;83.09;96605.28;5132684;28;20270;-82
2024/03/11 03:46:35;;;;;;;28.27;20.27;;;;;;;7.39;82.21;96607.66;5131291;28;20277;-82
2024/03/11 03:49:02;;;;;;;92.47;58.30;;;;;;;7.33;82.63;96612.97;5132876;28;20296;-82
2024/03/11 03:51:30;;;;;;;35.17;26.07;;;;;;;7.31;83.08;96622.22;5131244;27;20255;-82
2024/03/11 03:53:58;;;;;;;24.77;22.27;;;;;;;7.54;82.63;96619.06;5132540;28;20266;-82
2024/03/11 03:56:26;;;;;;;25.17;18.17;;;;;;;7.44;81.86;96603.19;5131531;28;20209;-83
2024/03/11 03:58:53;;;;;;;18.97;14.13;;;;;;;7.25;82.91;96575.66;5133273;28;20222;-88
2024/03/11 04:01:22;;;;;;;17.93;13.40;;;;;;;7.39;82.93;96579.31;5117233;27;20802;-87
2024/03/11 04:03:48;;;;;;;16.13;13.10;;;;;;;7.63;82.75;96605.28;5116999;28;20195;-87
2024/03/11 04:06:15;;;;;;;18.43;14.07;;;;;;;7.57;81.84;96591.25;5116971;28;20730;-87
2024/03/11 04:08:44;;;;;;;15.07;11.90;;;;;;;7.48;81.86;96553.91;5117068;28;20223;-87
2024/03/11 04:11:11;;;;;;;16.97;12.63;;;;;;;7.36;81.91;96534.88;5120096;27;20191;-88
2024/03/11 04:13:38;;;;;;;14.87;12.20;;;;;;;7.59;82.39;96592.59;5137799;27;20293;-88
2024/03/11 04:16:05;;;;;;;16.67;13.40;;;;;;;7.60;82.90;96603.97;5138376;27;20595;-90
2024/03/11 04:18:32;;;;;;;18.03;14.50;;;;;;;7.68;82.67;96608.72;5136397;27;20243;-88
2024/03/11 04:20:59;;;;;;;18.00;13.47;;;;;;;7.74;82.12;96598.91;5136804;27;20209;-90
2024/03/11 04:23:27;;;;;;;17.47;13.93;;;;;;;7.77;82.21;96601.81;5136410;27;20576;-91
2024/03/11 04:25:56;;;;;;;21.53;15.53;;;;;;;7.67;82.66;96603.69;5120702;27;20237;-91
2024/03/11 04:28:28;;;;;;;21.43;14.63;;;;;;;7.03;82.88;96560.78;5117193;28;20223;-91
2024/03/11 04:30:55;;;;;;;18.53;15.47;;;;;;;7.21;83.91;96616.94;5116208;28;20195;-90
2024/03/11 04:33:22;;;;;;;17.43;14.83;;;;;;;7.18;83.65;96588.34;5121783;27;20270;-91
2024/03/11 04:35:50;;;;;;;22.63;17.03;;;;;;;7.37;83.79;96609.81;5137700;27;20199;-90
2024/03/11 04:38:17;;;;;;;23.67;16.03;;;;;;;7.24;82.86;96601.31;5137737;27;20285;-90
2024/03/11 04:40:44;;;;;;;22.27;16.00;;;;;;;7.40;83.17;96623.31;5136722;27;20204;-90
2024/03/11 04:43:13;;;;;;;20.00;15.47;;;;;;;7.14;82.83;96605.81;5116170;27;20657;-91
2024/03/11 04:45:40;;;;;;;16.40;14.67;;;;;;;7.31;83.29;96624.88;5117077;28;20544;-91
2024/03/11 04:48:09;;;;;;;21.87;18.70;;;;;;;7.49;82.43;96618.28;5123179;27;20218;-91
2024/03/11 04:50:38;;;;;;;20.07;16.63;;;;;;;7.27;82.33;96597.34;5142511;27;20220;-90
2024/03/11 04:53:06;;;;;;;21.13;16.63;;;;;;;7.45;82.21;96622.50;5121357;27;20207;-90
2024/03/11 04:55:36;;;;;;;24.47;18.67;;;;;;;7.44;82.95;96626.22;5117502;27;20286;-90
2024/03/11 04:58:03;;;;;;;19.83;16.33;;;;;;;7.40;82.80;96594.19;5129525;27;20196;-91
2024/03/11 05:00:32;;;;;;;26.30;19.70;;;;;;;7.26;83.29;96574.56;5133747;27;20232;-90
2024/03/11 05:03:00;;;;;;;44.40;39.57;;;;;;;7.76;82.48;96625.94;5135758;27;20286;-91
2024/03/11 05:05:31;;;;;;;21.50;16.83;;;;;;;7.47;82.59;96562.13;5135919;27;20278;-91
2024/03/11 05:07:58;;;;;;;19.23;15.50;;;;;;;7.72;83.07;96611.63;5136507;27;20218;-90
2024/03/11 05:10:25;;;;;;;20.47;16.40;;;;;;;7.58;83.30;96598.91;5135802;27;20213;-91
2024/03/11 05:12:52;;;;;;;18.60;15.07;;;;;;;7.65;83.37;96609.25;5136306;27;20199;-90
2024/03/11 05:15:19;;;;;;;24.20;16.50;;;;;;;7.65;83.23;96611.09;5134383;27;20293;-90
2024/03/11 05:17:48;;;;;;;16.17;13.67;;;;;;;7.60;83.30;96601.31;5136612;27;20205;-90
2024/03/11 05:20:15;;;;;;;21.17;16.83;;;;;;;7.67;83.56;96609.78;5134697;27;20195;-90
2024/03/11 05:22:42;;;;;;;19.30;14.80;;;;;;;7.73;83.62;96619.31;5115280;28;20207;-86
2024/03/11 05:25:11;;;;;;;20.83;16.23;;;;;;;7.54;84.00;96628.84;5116140;28;20207;-87
2024/03/11 05:27:39;;;;;;;20.70;16.90;;;;;;;7.52;84.04;96610.59;5115823;28;20620;-90
2024/03/11 05:30:07;;;;;;;23.20;16.20;;;;;;;7.71;83.20;96641.84;5114954;28;20246;-86
2024/03/11 05:32:36;;;;;;;24.67;17.87;;;;;;;7.57;83.68;96649.53;5114713;28;20670;-85
2024/03/11 05:35:04;;;;;;;19.60;16.97;;;;;;;7.61;83.39;96642.63;5114488;28;20196;-86
2024/03/11 05:37:33;;;;;;;25.43;18.20;;;;;;;7.29;83.64;96597.88;5113818;28;20191;-86
2024/03/11 05:40:01;;;;;;;25.03;19.70;;;;;;;7.76;83.38;96639.19;5112972;28;20206;-85
2024/03/11 05:42:28;;;;;;;19.60;15.23;;;;;;;7.83;82.67;96643.16;5113185;28;20203;-85
2024/03/11 05:44:56;;;;;;;21.17;15.40;;;;;;;7.88;82.58;96646.84;5129295;27;20606;-85
2024/03/11 05:47:25;;;;;;;19.47;16.43;;;;;;;7.58;83.16;96633.34;5134275;27;20218;-85
2024/03/11 05:49:52;;;;;;;24.37;16.07;;;;;;;7.76;82.86;96637.31;5135004;27;20266;-85
2024/03/11 05:52:24;;;;;;;27.17;17.40;;;;;;;7.81;82.96;96618.75;5133957;27;20263;-85
2024/03/11 05:54:51;;;;;;;22.93;16.27;;;;;;;7.73;82.70;96602.63;5133825;27;20237;-86
2024/03/11 05:57:23;;;;;;;20.73;15.87;;;;;;;7.84;82.92;96606.84;5134080;27;20248;-85
2024/03/11 05:59:51;;;;;;;25.20;18.93;;;;;;;7.96;82.64;96595.97;5132290;27;20305;-85
2024/03/11 06:02:18;;;;;;;26.20;20.10;;;;;;;7.92;82.49;96606.31;5135140;27;20206;-85
2024/03/11 06:04:46;;;;;;;27.20;21.87;;;;;;;7.97;82.64;96593.03;5134710;27;20199;-85
2024/03/11 06:07:12;;;;;;;22.83;18.73;;;;;;;7.59;82.48;96530.88;5132385;27;20195;-86
2024/03/11 06:09:41;;;;;;;20.20;15.40;;;;;;;7.83;82.44;96592.81;5134033;27;20225;-86
2024/03/11 06:12:10;;;;;;;18.17;15.80;;;;;;;7.81;82.46;96572.94;5121616;27;20206;-85
2024/03/11 06:14:37;;;;;;;20.17;16.07;;;;;;;7.96;82.32;96583.50;5133635;27;20201;-85
2024/03/11 06:17:06;;;;;;;21.03;16.07;;;;;;;7.82;82.76;96546.19;5132574;27;20201;-86
2024/03/11 06:19:33;;;;;;;20.83;15.97;;;;;;;8.08;83.15;96578.69;5120149;27;20194;-85
2024/03/11 06:22:00;;;;;;;23.03;16.50;;;;;;;8.04;83.32;96566.25;5133423;27;20202;-87
2024/03/11 06:24:28;;;;;;;25.03;18.90;;;;;;;8.14;83.71;96607.84;5100562;28;20579;-86
2024/03/11 06:26:56;;;;;;;19.47;13.27;;;;;;;8.23;83.14;96611.53;5112537;28;20199;-85
2024/03/11 06:29:24;;;;;;;17.43;13.60;;;;;;;8.29;83.13;96619.22;5133150;27;20523;-85
2024/03/11 06:31:50;;;;;;;17.93;13.30;;;;;;;8.26;82.89;96617.09;5133178;27;20199;-86
2024/03/11 06:34:21;;;;;;;18.80;15.93;;;;;;;8.08;82.55;96573.38;5123715;27;20705;-85
2024/03/11 06:36:48;;;;;;;17.63;14.20;;;;;;;8.37;82.40;96615.22;5130149;27;20198;-85
2024/03/11 06:39:16;;;;;;;13.23;11.53;;;;;;;8.27;82.28;96610.72;5133539;27;20202;-86
2024/03/11 06:41:44;;;;;;;17.77;12.57;;;;;;;8.12;82.71;96578.16;5132964;27;20195;-85
2024/03/11 06:44:12;;;;;;;12.80;11.37;;;;;;;8.06;82.05;96582.69;5125113;27;20202;-85
2024/03/11 06:46:45;;;;;;;17.37;12.93;;;;;;;8.28;82.25;96614.16;5123038;27;20194;-85
2024/03/11 06:49:13;;;;;;;18.47;13.27;;;;;;;8.35;82.34;96609.38;5132958;27;20218;-86
2024/03/11 06:51:40;;;;;;;17.23;14.23;;;;;;;8.41;81.82;96604.88;5133397;27;20198;-85
2024/03/11 06:54:07;;;;;;;21.10;14.67;;;;;;;8.30;82.32;96620.00;5133011;27;20709;-86
2024/03/11 06:56:34;;;;;;;34.33;23.00;;;;;;;8.32;82.20;96644.38;5132886;27;20277;-85
2024/03/11 06:59:01;;;;;;;22.57;16.30;;;;;;;8.34;82.22;96645.69;5132616;27;20638;-86
2024/03/11 07:01:29;;;;;;;42.20;31.77;;;;;;;8.40;81.68;96632.44;5132360;27;20199;-85
2024/03/11 07:03:56;;;;;;;45.70;33.23;;;;;;;8.34;81.47;96636.97;5132736;27;20230;-85
2024/03/11 07:06:24;;;;;;;41.50;27.60;;;;;;;8.30;81.59;96630.59;5131862;27;20589;-85
2024/03/11 07:08:51;;;;;;;31.27;22.00;;;;;;;8.35;81.67;96641.19;5132883;27;20271;-85
2024/03/11 07:11:18;;;;;;;18.83;14.73;;;;;;;8.29;81.57;96639.63;5132317;27;20194;-86
2024/03/11 07:13:45;;;;;;;25.17;20.13;;;;;;;8.36;81.62;96649.94;5132557;27;20198;-85
2024/03/11 07:16:12;;;;;;;18.27;14.60;;;;;;;8.09;82.51;96665.13;5132096;27;20664;-85
2024/03/11 07:18:41;;;;;;;21.47;13.70;;;;;;;8.26;82.13;96645.47;5132834;27;20190;-85
2024/03/11 07:21:09;;;;;;;16.83;14.00;;;;;;;8.36;81.53;96661.34;5131995;27;20683;-86
2024/03/11 07:23:35;;;;;;;17.00;14.07;;;;;;;8.04;81.61;96625.34;5117161;27;20570;-85
2024/03/11 07:26:03;;;;;;;19.37;15.70;;;;;;;8.09;82.40;96657.19;5119823;27;20199;-85
2024/03/11 07:28:31;;;;;;;19.37;14.03;;;;;;;7.88;82.67;96621.16;5130096;27;20224;-86
2024/03/11 07:30:58;;;;;;;16.00;13.53;;;;;;;8.30;81.93;96651.81;5120629;27;20587;-86
2024/03/11 07:33:26;;;;;;;15.83;12.77;;;;;;;8.27;81.49;96666.41;5132417;27;20580;-85
2024/03/11 07:35:57;;;;;;;18.07;14.07;;;;;;;8.45;82.04;96669.59;5123204;27;20283;-86
2024/03/11 07:38:25;;;;;;;17.43;13.67;;;;;;;8.39;81.14;96652.09;5128370;28;20210;-85
2024/03/11 07:40:53;;;;;;;20.23;16.77;;;;;;;8.58;81.24;96656.53;5120937;28;20188;-85
2024/03/11 07:43:20;;;;;;;17.13;13.60;;;;;;;8.42;80.91;96657.66;5111630;28;20615;-86
2024/03/11 07:45:47;;;;;;;17.63;13.90;;;;;;;8.30;80.98;96635.91;5112010;28;20202;-85
2024/03/11 07:48:14;;;;;;;19.13;14.43;;;;;;;8.50;81.12;96670.34;5129788;28;20211;-85
2024/03/11 07:50:41;;;;;;;21.50;19.03;;;;;;;8.62;80.62;96662.09;5131847;27;20198;-86
2024/03/11 07:53:12;;;;;;;17.67;15.67;;;;;;;8.24;80.12;96598.00;5132417;28;20226;-86
2024/03/11 07:55:40;;;;;;;15.13;12.53;;;;;;;8.68;79.67;96671.63;5132374;28;20587;-85
2024/03/11 07:58:07;;;;;;;14.67;13.13;;;;;;;8.61;80.26;96678.28;5131760;28;20199;-86
2024/03/11 08:00:36;;;;;;;14.80;12.43;;;;;;;8.43;80.62;96659.22;5132097;27;20195;-86
2024/03/11 08:03:04;;;;;;;14.93;13.03;;;;;;;8.40;80.96;96683.66;5119247;27;20186;-86
2024/03/11 08:05:32;;;;;;;16.43;13.47;;;;;;;8.34;81.07;96661.63;5128995;27;20263;-85
2024/03/11 08:07:59;;;;;;;16.73;13.37;;;;;;;8.68;80.82;96676.94;5131965;28;20203;-86
2024/03/11 08:10:27;;;;;;;18.73;13.87;;;;;;;8.82;80.26;96679.78;5132002;28;20283;-86
2024/03/11 08:12:55;;;;;;;16.77;14.03;;;;;;;8.71;80.05;96673.75;5105238;28;20286;-85
2024/03/11 08:15:22;;;;;;;15.53;13.63;;;;;;;8.67;80.51;96674.53;5130249;28;20194;-85
2024/03/11 08:17:51;;;;;;;19.80;13.10;;;;;;;8.71;80.18;96683.53;5117951;28;20203;-85
2024/03/11 08:20:20;;;;;;;15.47;13.30;;;;;;;8.50;80.25;96641.16;5119345;28;20616;-85
2024/03/11 08:22:48;;;;;;;24.00;15.57;;;;;;;8.60;80.67;96674.06;5132314;28;20682;-85
2024/03/11 08:25:16;;;;;;;16.80;13.77;;;;;;;8.37;80.75;96648.88;5116985;28;20199;-85
2024/03/11 08:27:44;;;;;;;22.53;14.83;;;;;;;8.59;80.75;96673.22;5120141;28;20207;-85
2024/03/11 08:30:12;;;;;;;16.93;13.30;;;;;;;8.54;80.51;96654.69;5129974;28;20267;-85
2024/03/11 08:32:41;;;;;;;18.27;13.70;;;;;;;8.69;80.27;96659.94;5122835;28;20213;-85
2024/03/11 08:35:09;;;;;;;17.80;14.20;;;;;;;8.77;80.17;96656.72;5127736;28;20198;-86
2024/03/11 08:37:36;;;;;;;21.57;15.40;;;;;;;8.85;79.73;96655.34;5121383;28;20191;-85
2024/03/11 08:40:04;;;;;;;23.87;19.40;;;;;;;9.09;79.27;96649.38;5129249;28;20200;-86
2024/03/11 08:42:31;;;;;;;16.60;14.07;;;;;;;9.00;79.01;96625.28;5130387;28;20225;-85
2024/03/11 08:44:59;;;;;;;14.27;12.90;;;;;;;9.01;78.72;96605.63;5116562;28;20207;-85
2024/03/11 08:47:27;;;;;;;16.47;13.17;;;;;;;9.03;78.22;96603.50;5120566;28;20199;-85
2024/03/11 08:49:54;;;;;;;13.97;11.77;;;;;;;9.09;77.86;96581.16;5132326;27;20306;-85
2024/03/11 08:52:21;;;;;;;15.33;9.87;;;;;;;9.36;77.39;96611.78;5135295;27;20220;-86
2024/03/11 08:54:50;;;;;;;15.43;13.13;;;;;;;9.46;77.67;96612.50;5129671;27;20270;-85
2024/03/11 08:57:17;;;;;;;13.47;12.07;;;;;;;9.43;77.46;96599.75;5127271;27;20221;-85
2024/03/11 08:59:45;;;;;;;22.30;16.30;;;;;;;9.64;77.33;96604.91;5134576;27;20238;-85
2024/03/11 09:02:14;;;;;;;17.73;14.50;;;;;;;9.52;76.81;96590.13;5135508;27;20534;-85
2024/03/11 09:04:41;;;;;;;24.60;18.20;;;;;;;9.71;77.40;96613.34;5128732;27;20203;-85
2024/03/11 09:07:09;;;;;;;16.67;13.17;;;;;;;9.76;77.13;96615.97;5124537;27;20197;-85
2024/03/11 09:09:36;;;;;;;15.03;13.07;;;;;;;9.86;77.16;96610.53;5106852;27;20301;-85
2024/03/11 09:12:05;;;;;;;22.97;14.97;;;;;;;9.90;76.47;96626.72;5134595;27;20198;-85
2024/03/11 09:14:32;;;;;;;12.33;10.10;;;;;;;9.93;75.71;96637.59;5134796;27;20601;-85
2024/03/11 09:17:00;;;;;;;11.07;9.43;;;;;;;9.81;75.57;96647.81;5121111;27;20294;-85
2024/03/11 09:19:30;;;;;;;13.47;10.93;;;;;;;9.79;76.14;96649.94;5134777;27;20186;-85
2024/03/11 09:21:57;;;;;;;11.73;10.50;;;;;;;9.78;76.01;96646.50;5134465;27;20657;-85
2024/03/11 09:24:27;;;;;;;20.40;15.37;;;;;;;9.69;75.79;96623.47;5127434;27;20261;-85
2024/03/11 09:26:54;;;;;;;14.13;12.50;;;;;;;9.71;75.94;96613.34;5127203;27;20199;-85
2024/03/11 09:29:22;;;;;;;19.87;17.03;;;;;;;9.98;75.45;96652.72;5113575;28;20222;-85
2024/03/11 09:31:50;;;;;;;16.67;14.73;;;;;;;10.12;75.49;96642.22;5129897;27;20194;-84
2024/03/11 09:34:18;;;;;;;24.47;17.77;;;;;;;10.04;74.08;96625.00;5134514;27;20203;-85
2024/03/11 09:36:46;;;;;;;31.00;22.30;;;;;;;10.17;74.92;96658.91;5131898;27;20243;-84
2024/03/11 09:39:13;;;;;;;27.10;16.60;;;;;;;10.23;74.07;96662.31;5123438;27;20252;-85
2024/03/11 09:41:42;;;;;;;25.53;17.67;;;;;;;10.28;74.06;96656.97;5134626;27;20277;-85
2024/03/11 09:44:16;;;;;;;13.10;9.73;;;;;;;10.08;73.40;96649.19;5133705;27;20206;-85
2024/03/11 09:46:43;;;;;;;10.87;8.93;;;;;;;10.38;73.03;96643.56;5133608;27;20676;-85
2024/03/11 09:49:14;;;;;;;12.00;9.30;;;;;;;10.42;73.29;96649.91;5133864;27;20223;-85
2024/03/11 09:51:44;;;;;;;37.23;24.17;;;;;;;10.57;73.57;96645.47;5133826;27;20194;-85
2024/03/11 09:54:13;;;;;;;16.93;12.37;;;;;;;10.77;72.59;96642.59;5133115;27;20206;-85
2024/03/11 09:56:41;;;;;;;16.10;14.03;;;;;;;11.04;71.34;96647.31;5134138;27;20195;-84
2024/03/11 09:59:09;;;;;;;10.90;8.83;;;;;;;10.90;70.58;96615.25;5132568;27;20564;-85
2024/03/11 10:01:42;;;;;;;9.53;8.50;;;;;;;11.61;68.28;96656.03;5121149;27;20263;-85
2024/03/11 10:04:10;;;;;;;8.23;7.17;;;;;;;11.67;67.67;96646.91;5133344;27;20599;-85
2024/03/11 10:06:39;;;;;;;10.37;8.70;;;;;;;11.95;67.84;96642.47;5134082;27;20195;-85
2024/03/11 10:09:09;;;;;;;7.77;6.77;;;;;;;11.56;66.50;96626.03;5117229;27;20644;-85
2024/03/11 10:11:38;;;;;;;13.03;11.07;;;;;;;11.70;67.66;96632.19;5112439;27;20608;-85
2024/03/11 10:14:20;;;;;;;8.67;7.77;;;;;;;12.05;66.89;96646.84;5133789;27;20222;-85
2024/03/11 10:16:48;;;;;;;8.40;7.27;;;;;;;12.01;65.39;96643.19;5132799;27;20740;-85
2024/03/11 10:19:14;;;;;;;6.77;5.60;;;;;;;11.24;66.66;96628.38;5129344;27;20668;-85
2024/03/11 10:21:42;;;;;;;6.83;6.20;;;;;;;11.61;67.19;96633.94;5126524;27;20665;-85
2024/03/11 10:24:09;;;;;;;8.33;6.07;;;;;;;11.87;65.96;96629.00;5132970;27;20205;-86
2024/03/11 10:26:42;;;;;;;7.30;6.53;;;;;;;11.89;65.39;96627.63;5133411;27;20194;-85
2024/03/11 10:29:11;;;;;;;9.57;7.27;;;;;;;12.07;65.47;96630.53;5133317;27;20228;-86
2024/03/11 10:31:44;;;;;;;8.70;7.00;;;;;;;11.64;65.24;96604.03;5133484;27;20669;-84
2024/03/11 10:34:13;;;;;;;7.90;7.20;;;;;;;11.94;64.70;96634.75;5123336;27;20196;-85
2024/03/11 10:36:42;;;;;;;10.80;9.70;;;;;;;11.78;65.09;96606.75;5114478;27;20245;-85
2024/03/11 10:39:17;;;;;;;9.90;8.93;;;;;;;11.91;64.21;96614.00;5133007;27;20203;-85
2024/03/11 10:41:47;;;;;;;16.33;14.63;;;;;;;11.98;64.29;96615.19;5133319;27;20201;-85
2024/03/11 10:44:16;;;;;;;7.77;7.07;;;;;;;11.88;64.55;96627.91;5132626;27;20207;-85
2024/03/11 10:46:43;;;;;;;9.30;6.60;;;;;;;11.97;64.21;96629.63;5132836;27;20621;-84
2024/03/11 10:49:12;;;;;;;8.90;6.67;;;;;;;12.07;63.84;96622.53;5132975;27;20594;-87
2024/03/11 10:51:47;;;;;;;5.90;5.33;;;;;;;11.95;63.68;96615.78;5102864;27;20273;-84
2024/03/11 10:54:23;;;;;;;8.70;6.33;;;;;;;11.80;64.83;96608.00;5132351;27;20276;-85
2024/03/11 10:56:55;;;;;;;9.93;5.80;;;;;;;11.89;63.76;96600.97;5132821;27;20197;-84
2024/03/11 10:59:23;;;;;;;8.93;5.10;;;;;;;11.88;64.16;96567.38;5132521;27;20223;-85
2024/03/11 11:01:56;;;;;;;97.47;36.80;;;;;;;12.05;63.97;96592.69;5132782;27;20218;-85
2024/03/11 11:04:28;;;;;;;38.23;21.03;;;;;;;12.14;64.12;96598.91;5131832;27;20197;-85
2024/03/11 11:06:58;;;;;;;39.70;23.77;;;;;;;12.12;64.06;96593.06;5132627;27;20247;-85
2024/03/11 11:09:27;;;;;;;27.07;18.27;;;;;;;11.88;63.49;96558.56;5132049;27;20305;-85
2024/03/11 11:11:56;;;;;;;63.83;33.20;;;;;;;12.39;63.60;96587.78;5132962;27;20194;-85
2024/03/11 11:14:27;;;;;;;22.93;13.83;;;;;;;12.41;61.77;96542.09;5118172;27;20244;-84
2024/03/11 11:16:55;;;;;;;74.23;36.47;;;;;;;12.87;60.18;96579.28;5132024;27;20202;-84
2024/03/11 11:19:25;;;;;;;41.67;23.60;;;;;;;12.76;60.47;96585.94;5127713;27;20244;-85
2024/03/11 11:21:52;;;;;;;76.97;39.00;;;;;;;12.91;59.81;96579.47;5127112;27;20547;-85
2024/03/11 11:24:30;;;;;;;44.07;25.57;;;;;;;12.98;59.99;96577.19;5132137;27;20640;-85
2024/03/11 11:26:59;;;;;;;31.00;17.87;;;;;;;13.13;59.85;96582.19;5132257;27;20243;-85
2024/03/11 11:29:29;;;;;;;61.20;35.67;;;;;;;13.41;59.07;96571.41;5132851;27;20222;-84